createdAt,value
2019-03-11T00:02:19.646Z,88.10
2019-03-11T00:04:58.448Z,89.00
2019-03-11T00:07:33.339Z,88.60
2019-03-11T00:10:17.678Z,89.40
2019-03-11T00:12:47.570Z,88.60
2019-03-11T00:15:17.953Z,89.00
2019-03-11T00:17:49.404Z,88.40
2019-03-11T00:20:22.434Z,88.70
2019-03-11T00:22:57.564Z,89.50
2019-03-11T00:25:31.476Z,88.50
2019-03-11T00:28:04.344Z,88.50
2019-03-11T00:30:34.069Z,88.80
2019-03-11T00:33:09.855Z,89.60
2019-03-11T00:35:43.667Z,88.80
2019-03-11T00:38:18.006Z,89.00
2019-03-11T00:40:48.271Z,88.50
2019-03-11T00:43:20.742Z,89.30
2019-03-11T00:45:49.897Z,89.90
2019-03-11T00:48:19.083Z,89.40
2019-03-11T00:50:48.234Z,89.40
2019-03-11T00:53:17.488Z,90.50
2019-03-11T00:55:46.696Z,90.50
2019-03-11T00:58:15.892Z,90.70
2019-03-11T01:00:45.312Z,90.60
2019-03-11T01:03:14.488Z,90.40
2019-03-11T01:05:43.617Z,90.40
2019-03-11T01:08:12.864Z,90.00
2019-03-11T01:10:42.072Z,90.20
2019-03-11T01:13:11.267Z,89.80
2019-03-11T01:15:40.497Z,89.70
2019-03-11T01:18:09.735Z,90.40
2019-03-11T01:20:38.945Z,90.20
2019-03-11T01:23:08.115Z,90.80
2019-03-11T01:25:37.341Z,90.50
2019-03-11T01:28:06.509Z,90.60
2019-03-11T01:30:35.684Z,90.60
2019-03-11T01:33:04.805Z,90.70
2019-03-11T01:35:33.960Z,90.80
2019-03-11T01:38:03.130Z,90.70
2019-03-11T01:40:32.311Z,90.80
2019-03-11T01:43:01.428Z,91.00
2019-03-11T01:45:30.583Z,91.20
2019-03-11T01:47:59.717Z,91.10
2019-03-11T01:50:28.885Z,90.60
2019-03-11T01:52:58.121Z,90.70
2019-03-11T01:55:27.445Z,90.90
2019-03-11T01:57:56.590Z,91.10
2019-03-11T02:00:25.988Z,91.40
2019-03-11T02:02:55.282Z,91.60
2019-03-11T02:05:24.499Z,91.20
2019-03-11T02:07:53.679Z,91.60
2019-03-11T02:10:22.902Z,91.80
2019-03-11T02:12:52.072Z,92.10
2019-03-11T02:15:21.325Z,92.20
2019-03-11T02:17:50.466Z,92.20
2019-03-11T02:20:19.679Z,92.30
2019-03-11T02:22:48.849Z,92.30
2019-03-11T02:25:18.116Z,92.70
2019-03-11T02:27:48.435Z,92.40
2019-03-11T02:30:17.589Z,92.10
2019-03-11T02:32:46.824Z,92.10
2019-03-11T02:35:26.869Z,92.50
2019-03-11T02:37:56.092Z,92.70
2019-03-11T02:40:25.465Z,92.80
2019-03-11T02:42:54.793Z,92.40
2019-03-11T02:45:23.990Z,92.20
2019-03-11T02:47:53.137Z,92.50
2019-03-11T02:50:22.261Z,92.40
2019-03-11T02:52:51.513Z,92.20
2019-03-11T02:55:20.652Z,92.20
2019-03-11T02:57:49.773Z,92.20
2019-03-11T03:00:19.934Z,92.30
2019-03-11T03:03:14.482Z,92.30
2019-03-11T03:05:50.428Z,92.30
2019-03-11T03:08:19.620Z,92.40
2019-03-11T03:10:48.777Z,92.70
2019-03-11T03:13:17.994Z,92.60
2019-03-11T03:15:47.273Z,92.80
2019-03-11T03:18:16.506Z,93.30
2019-03-11T03:20:45.625Z,93.50
2019-03-11T03:23:14.868Z,93.30
2019-03-11T03:25:44.037Z,93.40
2019-03-11T03:28:13.310Z,93.50
2019-03-11T03:30:42.576Z,93.40
2019-03-11T03:33:11.710Z,93.00
2019-03-11T03:35:40.906Z,93.40
2019-03-11T03:38:10.198Z,93.20
2019-03-11T03:40:39.471Z,93.00
2019-03-11T03:43:08.771Z,93.00
2019-03-11T03:45:41.167Z,92.70
2019-03-11T03:48:10.613Z,92.90
2019-03-11T03:50:40.337Z,92.70
2019-03-11T03:53:09.722Z,92.30
2019-03-11T03:55:38.955Z,92.90
2019-03-11T03:58:08.348Z,93.90
2019-03-11T04:00:37.510Z,95.00
2019-03-11T04:03:06.649Z,96.00
2019-03-11T04:05:35.779Z,96.50
2019-03-11T04:08:06.485Z,96.80
2019-03-11T04:10:35.844Z,97.10
2019-03-11T04:13:05.186Z,97.70
2019-03-11T04:15:34.395Z,98.40
2019-03-11T04:18:03.527Z,99.90
2019-03-11T04:20:32.668Z,99.90
2019-03-11T04:23:02.187Z,99.90
2019-03-11T04:25:31.345Z,99.90
2019-03-11T04:28:00.527Z,99.90
2019-03-11T04:30:30.120Z,99.90
2019-03-11T04:32:59.370Z,99.90
2019-03-11T04:35:28.545Z,99.90
2019-03-11T04:37:57.748Z,99.90
2019-03-11T04:40:26.988Z,99.90
2019-03-11T04:42:56.196Z,99.90
2019-03-11T04:45:25.340Z,99.90
2019-03-11T04:47:54.479Z,99.90
2019-03-11T04:50:23.717Z,99.90
2019-03-11T04:52:52.840Z,99.90
2019-03-11T04:55:22.060Z,99.90
2019-03-11T04:57:54.573Z,99.90
2019-03-11T05:00:26.008Z,99.90
2019-03-11T05:02:55.175Z,99.90
2019-03-11T05:05:24.357Z,99.90
2019-03-11T05:07:53.629Z,99.90
2019-03-11T05:10:22.864Z,99.90
2019-03-11T05:12:52.100Z,99.90
2019-03-11T05:15:21.224Z,99.90
2019-03-11T05:17:50.872Z,99.90
2019-03-11T05:20:20.308Z,99.90
2019-03-11T05:22:49.482Z,99.90
2019-03-11T05:25:18.642Z,99.90
2019-03-11T05:27:47.772Z,99.90
2019-03-11T05:30:17.041Z,99.90
2019-03-11T05:32:47.678Z,99.90
2019-03-11T05:35:16.883Z,99.90
2019-03-11T05:37:46.105Z,99.90
2019-03-11T05:40:15.678Z,99.90
2019-03-11T05:42:44.849Z,99.90
2019-03-11T05:45:14.185Z,99.90
2019-03-11T05:47:43.333Z,99.90
2019-03-11T05:50:13.389Z,99.90
2019-03-11T05:52:44.019Z,99.90
2019-03-11T05:55:13.277Z,99.90
2019-03-11T05:57:42.762Z,99.90
2019-03-11T06:00:14.996Z,99.90
2019-03-11T06:02:44.156Z,99.90
2019-03-11T06:05:13.761Z,99.90
2019-03-11T06:07:42.909Z,99.90
2019-03-11T06:10:12.316Z,99.90
2019-03-11T06:12:41.444Z,99.90
2019-03-11T06:15:10.916Z,99.90
2019-03-11T06:17:40.283Z,99.90
2019-03-11T06:20:28.736Z,99.90
2019-03-11T06:22:58.168Z,99.90
2019-03-11T06:25:27.350Z,99.90
2019-03-11T06:27:56.669Z,99.90
2019-03-11T06:30:26.099Z,99.90
2019-03-11T06:32:55.316Z,99.90
2019-03-11T06:35:24.545Z,99.90
2019-03-11T06:37:53.702Z,99.30
2019-03-11T06:40:22.843Z,99.60
2019-03-11T06:42:52.053Z,98.80
2019-03-11T06:45:21.282Z,98.60
2019-03-11T06:47:51.524Z,98.60
2019-03-11T06:50:20.852Z,98.40
2019-03-11T06:52:49.998Z,98.00
2019-03-11T06:55:19.150Z,98.80
2019-03-11T06:57:48.336Z,98.20
2019-03-11T07:00:17.646Z,98.60
2019-03-11T07:02:46.846Z,98.30
2019-03-11T07:05:20.269Z,98.00
2019-03-11T07:07:47.067Z,97.70
2019-03-11T07:10:16.796Z,97.60
2019-03-11T07:12:46.039Z,97.80
2019-03-11T07:15:16.147Z,96.50
2019-03-11T07:17:45.415Z,96.30
2019-03-11T07:20:14.628Z,96.60
2019-03-11T07:22:43.827Z,96.10
2019-03-11T07:25:13.336Z,95.50
2019-03-11T07:27:42.585Z,96.00
2019-03-11T07:30:13.473Z,94.60
2019-03-11T07:32:44.512Z,95.20
2019-03-11T07:35:13.724Z,95.00
2019-03-11T07:37:42.974Z,94.90
2019-03-11T07:40:12.232Z,94.90
2019-03-11T07:42:41.461Z,94.60
2019-03-11T07:45:10.889Z,94.20
2019-03-11T07:47:40.060Z,93.60
2019-03-11T07:50:09.712Z,93.30
2019-03-11T07:52:38.966Z,93.50
2019-03-11T07:55:08.154Z,93.90
2019-03-11T07:57:37.392Z,94.20
2019-03-11T08:00:09.230Z,93.40
2019-03-11T08:02:40.361Z,93.50
2019-03-11T08:05:09.824Z,94.00
2019-03-11T08:07:39.037Z,98.20
2019-03-11T08:10:09.556Z,99.90
2019-03-11T08:12:38.761Z,99.90
2019-03-11T08:15:10.210Z,99.90
2019-03-11T08:17:39.437Z,99.90
2019-03-11T08:20:10.148Z,99.90
2019-03-11T08:22:39.429Z,99.90
2019-03-11T08:25:08.829Z,99.90
2019-03-11T08:27:37.991Z,99.90
2019-03-11T08:30:08.293Z,99.90
2019-03-11T08:32:37.552Z,99.90
2019-03-11T08:35:07.493Z,99.90
2019-03-11T08:37:36.680Z,99.90
2019-03-11T08:40:06.829Z,99.90
2019-03-11T08:42:35.981Z,99.90
2019-03-11T08:45:06.075Z,99.90
2019-03-11T08:47:35.293Z,99.90
2019-03-11T08:50:05.176Z,99.90
2019-03-11T08:52:34.429Z,99.90
2019-03-11T08:55:03.625Z,99.90
2019-03-11T08:57:32.879Z,99.90
2019-03-11T09:00:02.062Z,99.90
2019-03-11T09:02:31.311Z,99.90
2019-03-11T09:05:00.657Z,99.90
2019-03-11T09:07:31.087Z,99.90
2019-03-11T09:10:00.449Z,99.90
2019-03-11T09:12:29.691Z,99.90
2019-03-11T09:14:58.957Z,99.90
2019-03-11T09:17:28.072Z,99.90
2019-03-11T09:19:57.520Z,99.90
2019-03-11T09:22:26.751Z,99.90
2019-03-11T09:24:56.023Z,99.30
2019-03-11T09:27:25.264Z,99.20
2019-03-11T09:29:54.624Z,99.00
2019-03-11T09:32:23.870Z,98.20
2019-03-11T09:34:53.127Z,96.70
2019-03-11T09:37:22.347Z,97.20
2019-03-11T09:39:51.645Z,96.30
2019-03-11T09:42:20.850Z,94.40
2019-03-11T09:44:50.273Z,94.00
2019-03-11T09:47:19.543Z,94.50
2019-03-11T09:49:49.078Z,94.80
2019-03-11T09:52:20.130Z,94.70
2019-03-11T09:54:49.276Z,94.50
2019-03-11T09:57:18.540Z,94.00
2019-03-11T09:59:47.906Z,93.10
2019-03-11T10:02:17.202Z,93.30
2019-03-11T10:04:47.538Z,92.40
2019-03-11T10:07:16.784Z,93.10
2019-03-11T10:09:46.050Z,92.50
2019-03-11T10:12:15.378Z,92.70
2019-03-11T10:14:44.619Z,92.00
2019-03-11T10:17:13.918Z,93.20
2019-03-11T10:19:43.118Z,92.80
2019-03-11T10:22:12.498Z,91.30
2019-03-11T10:24:41.741Z,91.80
2019-03-11T10:27:11.014Z,91.80
2019-03-11T10:29:40.251Z,91.40
2019-03-11T10:32:09.433Z,91.10
2019-03-11T10:34:38.759Z,91.10
2019-03-11T10:37:07.966Z,90.70
2019-03-11T10:39:37.146Z,90.20
2019-03-11T10:42:06.518Z,90.60
2019-03-11T10:44:35.715Z,90.10
2019-03-11T10:47:04.949Z,88.50
2019-03-11T10:49:34.213Z,89.00
2019-03-11T10:52:03.487Z,86.80
2019-03-11T10:54:32.781Z,86.10
2019-03-11T10:57:02.140Z,86.00
2019-03-11T10:59:31.314Z,85.50
2019-03-11T11:02:00.588Z,86.70
2019-03-11T11:04:29.874Z,86.20
2019-03-11T11:06:59.117Z,84.60
2019-03-11T11:09:28.498Z,87.00
2019-03-11T11:11:57.779Z,85.60
2019-03-11T11:14:27.053Z,86.80
2019-03-11T11:16:56.216Z,86.90
2019-03-11T11:19:25.528Z,86.80
2019-03-11T11:21:54.749Z,88.10
2019-03-11T11:24:23.996Z,87.10
2019-03-11T11:26:53.218Z,87.00
2019-03-11T11:29:22.423Z,86.10
2019-03-11T11:31:51.681Z,84.60
2019-03-11T11:34:20.963Z,89.80
2019-03-11T11:36:50.339Z,90.60
2019-03-11T11:39:19.545Z,90.10
2019-03-11T11:41:48.886Z,90.00
2019-03-11T11:44:18.212Z,90.60
2019-03-11T11:46:47.529Z,90.90
2019-03-11T11:49:16.756Z,91.90
2019-03-11T11:51:46.106Z,91.30
2019-03-11T11:54:15.322Z,91.30
2019-03-11T11:56:44.497Z,91.10
2019-03-11T11:59:13.716Z,90.80
2019-03-11T12:01:42.998Z,91.50
2019-03-11T12:04:13.590Z,90.10
2019-03-11T12:06:43.167Z,86.10
2019-03-11T12:09:12.497Z,88.40
2019-03-11T12:11:41.659Z,89.00
2019-03-11T12:14:10.850Z,86.20
2019-03-11T12:16:40.235Z,85.00
2019-03-11T12:19:09.561Z,83.40
2019-03-11T12:21:38.889Z,84.20
2019-03-11T12:24:08.132Z,83.60
2019-03-11T12:26:37.463Z,85.50
2019-03-11T12:29:06.732Z,86.50
2019-03-11T12:31:36.026Z,87.40
2019-03-11T12:34:05.313Z,87.90
2019-03-11T12:36:34.569Z,87.50
2019-03-11T12:39:05.142Z,88.90
2019-03-11T12:41:34.326Z,82.40
2019-03-11T12:44:03.601Z,82.50
2019-03-11T12:46:32.878Z,83.60
2019-03-11T12:49:02.261Z,83.20
2019-03-11T12:51:31.429Z,82.90
2019-03-11T12:54:00.708Z,81.80
2019-03-11T12:56:29.889Z,82.80
2019-03-11T12:58:59.182Z,80.30
2019-03-11T13:01:28.464Z,83.70
2019-03-11T13:03:57.849Z,84.40
2019-03-11T13:06:27.125Z,80.80
2019-03-11T13:08:56.423Z,79.40
2019-03-11T13:11:25.657Z,77.00
2019-03-11T13:13:54.907Z,75.40
2019-03-11T13:16:24.213Z,74.70
2019-03-11T13:18:56.026Z,74.90
2019-03-11T13:21:30.759Z,76.40
2019-03-11T13:24:00.038Z,78.40
2019-03-11T13:26:30.351Z,80.40
2019-03-11T13:28:59.522Z,79.80
2019-03-11T13:31:28.824Z,80.00
2019-03-11T13:34:00.641Z,83.30
2019-03-11T13:36:30.017Z,82.80
2019-03-11T13:38:59.185Z,81.50
2019-03-11T13:41:28.451Z,78.90
2019-03-11T13:43:57.691Z,79.80
2019-03-11T13:46:28.733Z,79.50
2019-03-11T13:48:58.033Z,81.00
2019-03-11T13:51:27.340Z,79.70
2019-03-11T13:53:56.517Z,77.70
2019-03-11T13:56:25.717Z,77.10
2019-03-11T13:58:54.907Z,75.70
2019-03-11T14:01:24.161Z,78.00
2019-03-11T14:03:54.540Z,78.00
2019-03-11T14:06:23.800Z,79.20
2019-03-11T14:08:53.054Z,77.30
2019-03-11T14:11:22.221Z,78.60
2019-03-11T14:13:51.434Z,79.20
2019-03-11T14:16:20.633Z,80.60
2019-03-11T14:18:49.838Z,80.30
2019-03-11T14:21:25.606Z,80.00
2019-03-11T14:23:50.051Z,80.30
2019-03-11T14:26:20.407Z,80.10
2019-03-11T14:28:49.638Z,80.20
2019-03-11T14:31:18.870Z,81.10
2019-03-11T14:33:48.056Z,80.80
2019-03-11T14:36:17.384Z,79.80
2019-03-11T14:38:46.625Z,80.10
2019-03-11T14:41:15.859Z,79.80
2019-03-11T14:43:45.017Z,81.00
2019-03-11T14:46:14.181Z,82.10
2019-03-11T14:48:44.472Z,83.30
2019-03-11T14:51:13.837Z,83.80
2019-03-11T14:53:44.905Z,84.10
2019-03-11T14:56:14.176Z,85.30
2019-03-11T14:58:43.341Z,86.80
2019-03-11T15:01:14.443Z,88.20
2019-03-11T15:03:44.765Z,88.70
2019-03-11T15:06:14.215Z,89.90
2019-03-11T15:08:43.456Z,90.30
2019-03-11T15:11:12.698Z,91.10
2019-03-11T15:13:41.933Z,90.80
2019-03-11T15:16:11.185Z,90.60
2019-03-11T15:18:40.492Z,90.60
2019-03-11T15:21:09.769Z,90.50
2019-03-11T15:23:39.101Z,90.60
2019-03-11T15:26:08.387Z,90.50
2019-03-11T15:28:37.761Z,89.30
2019-03-11T15:31:10.688Z,89.80
2019-03-11T15:33:38.027Z,90.50
2019-03-11T15:36:07.256Z,89.80
2019-03-11T15:38:36.706Z,89.70
2019-03-11T15:41:05.924Z,89.60
2019-03-11T15:43:35.114Z,86.80
2019-03-11T15:46:04.271Z,85.90
2019-03-11T15:48:33.582Z,86.50
2019-03-11T15:51:02.834Z,86.80
2019-03-11T15:53:32.179Z,88.40
2019-03-11T15:56:01.416Z,86.90
2019-03-11T15:58:30.694Z,84.50
2019-03-11T16:00:59.937Z,85.20
2019-03-11T16:03:36.250Z,84.90
2019-03-11T16:06:00.124Z,85.50
2019-03-11T16:08:29.395Z,86.20
2019-03-11T16:10:58.931Z,85.80
2019-03-11T16:13:28.233Z,93.30
2019-03-11T16:15:57.453Z,99.90
2019-03-11T16:18:26.593Z,99.90
2019-03-11T16:20:55.820Z,99.90
2019-03-11T16:23:25.073Z,99.90
2019-03-11T16:25:54.273Z,99.90
2019-03-11T16:28:23.488Z,99.90
2019-03-11T16:30:52.729Z,99.90
2019-03-11T16:33:21.911Z,99.90
2019-03-11T16:35:51.200Z,99.90
2019-03-11T16:38:20.342Z,99.90
2019-03-11T16:40:49.604Z,99.90
2019-03-11T16:43:18.822Z,99.90
2019-03-11T16:45:48.114Z,99.90
2019-03-11T16:48:17.340Z,99.90
2019-03-11T16:50:46.600Z,99.90
2019-03-11T16:53:15.847Z,99.90
2019-03-11T16:55:45.891Z,99.90
2019-03-11T16:58:15.221Z,99.90
2019-03-11T17:00:44.896Z,99.90
2019-03-11T17:03:14.290Z,99.90
2019-03-11T17:05:43.553Z,99.90
2019-03-11T17:08:12.839Z,99.90
2019-03-11T17:10:42.261Z,99.90
2019-03-11T17:13:11.534Z,99.90
2019-03-11T17:15:40.684Z,99.90
2019-03-11T17:18:10.066Z,99.90
2019-03-11T17:20:39.371Z,99.90
2019-03-11T17:23:08.677Z,99.90
2019-03-11T17:25:37.848Z,99.90
2019-03-11T17:28:07.295Z,99.90
2019-03-11T17:30:36.665Z,99.90
2019-03-11T17:33:05.957Z,99.90
2019-03-11T17:35:37.562Z,99.90
2019-03-11T17:38:06.264Z,99.90
2019-03-11T17:40:35.491Z,99.90
2019-03-11T17:43:05.030Z,99.90
2019-03-11T17:45:34.389Z,99.90
2019-03-11T17:48:03.680Z,99.90
2019-03-11T17:50:32.948Z,99.90
2019-03-11T17:53:02.199Z,99.90
2019-03-11T17:55:31.409Z,99.90
2019-03-11T17:58:00.712Z,99.90
2019-03-11T18:00:31.781Z,99.90
2019-03-11T18:03:00.971Z,99.90
2019-03-11T18:05:30.257Z,99.90
2019-03-11T18:07:59.495Z,99.90
2019-03-11T18:10:28.776Z,99.90
2019-03-11T18:12:58.066Z,99.90
2019-03-11T18:15:27.291Z,99.90
2019-03-11T18:17:56.461Z,99.90
2019-03-11T18:20:25.676Z,99.90
2019-03-11T18:22:55.032Z,99.90
2019-03-11T18:25:24.300Z,99.90
2019-03-11T18:27:53.597Z,99.90
2019-03-11T18:30:22.969Z,99.90
2019-03-11T18:32:52.379Z,99.90
2019-03-11T18:35:21.848Z,99.90
2019-03-11T18:38:02.858Z,99.90
2019-03-11T18:40:22.397Z,99.90
2019-03-11T18:42:51.660Z,99.90
2019-03-11T18:45:20.977Z,99.90
2019-03-11T18:47:51.584Z,99.80
2019-03-11T18:50:20.988Z,99.90
2019-03-11T18:52:50.414Z,99.90
2019-03-11T18:55:19.736Z,99.90
2019-03-11T18:57:50.417Z,99.90
2019-03-11T19:00:20.034Z,99.90
2019-03-11T19:02:49.307Z,99.90
2019-03-11T19:05:18.819Z,99.90
2019-03-11T19:07:48.238Z,99.60
2019-03-11T19:10:17.715Z,99.90
2019-03-11T19:12:46.945Z,99.80
2019-03-11T19:15:16.918Z,99.50
2019-03-11T19:17:46.559Z,99.60
2019-03-11T19:20:17.413Z,99.30
2019-03-11T19:22:46.988Z,99.00
2019-03-11T19:25:17.116Z,99.30
2019-03-11T19:27:46.577Z,99.10
2019-03-11T19:30:17.851Z,99.20
2019-03-11T19:32:47.228Z,99.10
2019-03-11T19:35:17.427Z,99.40
2019-03-11T19:37:46.956Z,99.30
2019-03-11T19:40:17.767Z,98.80
2019-03-11T19:42:47.220Z,98.30
2019-03-11T19:45:17.002Z,98.50
2019-03-11T19:47:46.350Z,98.60
2019-03-11T19:50:16.398Z,98.20
2019-03-11T19:52:57.954Z,97.30
2019-03-11T19:55:17.002Z,96.70
2019-03-11T19:57:47.494Z,96.90
2019-03-11T20:00:18.343Z,96.90
2019-03-11T20:02:49.076Z,96.60
2019-03-11T20:05:20.357Z,95.80
2019-03-11T20:07:49.905Z,94.70
2019-03-11T20:10:19.363Z,95.20
2019-03-11T20:12:48.791Z,95.10
2019-03-11T20:15:18.612Z,95.10
2019-03-11T20:17:48.225Z,95.10
2019-03-11T20:20:18.066Z,95.40
2019-03-11T20:22:47.580Z,95.20
2019-03-11T20:25:19.383Z,94.90
2019-03-11T20:27:48.913Z,95.20
2019-03-11T20:30:19.406Z,95.20
2019-03-11T20:32:49.658Z,95.20
2019-03-11T20:35:19.885Z,95.00
2019-03-11T20:37:49.250Z,94.90
2019-03-11T20:40:18.685Z,94.80
2019-03-11T20:42:48.241Z,94.60
2019-03-11T20:45:17.917Z,94.70
2019-03-11T20:47:47.511Z,94.80
2019-03-11T20:50:17.101Z,94.20
2019-03-11T20:52:47.721Z,94.30
2019-03-11T20:55:17.287Z,94.80
2019-03-11T20:57:47.151Z,94.60
2019-03-11T21:00:18.131Z,94.80
2019-03-11T21:02:47.458Z,94.50
2019-03-11T21:05:18.008Z,94.70
2019-03-11T21:07:47.288Z,94.70
2019-03-11T21:10:17.387Z,94.60
2019-03-11T21:12:46.897Z,94.40
2019-03-11T21:15:16.455Z,94.30
2019-03-11T21:17:45.738Z,94.10
2019-03-11T21:20:15.412Z,94.30
2019-03-11T21:22:44.832Z,94.00
2019-03-11T21:25:15.572Z,93.90
2019-03-11T21:27:45.236Z,93.50
2019-03-11T21:30:18.021Z,94.30
2019-03-11T21:32:47.587Z,94.60
2019-03-11T21:35:18.870Z,94.20
2019-03-11T21:37:48.346Z,94.60
2019-03-11T21:40:18.231Z,94.60
2019-03-11T21:42:47.637Z,95.40
2019-03-11T21:45:17.046Z,95.80
2019-03-11T21:47:50.640Z,95.70
2019-03-11T21:50:20.139Z,96.30
2019-03-11T21:52:49.485Z,95.90
2019-03-11T21:55:18.835Z,96.30
2019-03-11T21:57:48.343Z,96.00
2019-03-11T22:00:32.949Z,95.90
2019-03-11T22:02:51.344Z,96.40
2019-03-11T22:05:20.805Z,96.50
2019-03-11T22:07:50.054Z,96.70
2019-03-11T22:10:19.208Z,96.60
2019-03-11T22:12:48.424Z,96.30
2019-03-11T22:15:17.752Z,96.20
2019-03-11T22:17:46.925Z,95.90
2019-03-11T22:20:16.220Z,95.90
2019-03-11T22:22:45.677Z,96.00
2019-03-11T22:25:15.246Z,96.30
2019-03-11T22:27:44.522Z,96.50
2019-03-11T22:30:17.985Z,96.10
2019-03-11T22:32:47.216Z,95.90
2019-03-11T22:35:16.698Z,96.30
2019-03-11T22:37:45.913Z,95.90
2019-03-11T22:40:15.197Z,96.30
2019-03-11T22:42:44.641Z,95.90
2019-03-11T22:45:17.639Z,95.90
2019-03-11T22:47:46.944Z,96.20
2019-03-11T22:50:17.904Z,96.10
2019-03-11T22:52:47.169Z,96.00
2019-03-11T22:55:16.615Z,95.70
2019-03-11T22:57:45.907Z,95.80
2019-03-11T23:00:23.071Z,96.10
2019-03-11T23:02:52.412Z,96.00
2019-03-11T23:05:21.811Z,95.90
2019-03-11T23:07:51.152Z,95.80
2019-03-11T23:10:20.397Z,96.00
2019-03-11T23:12:49.540Z,96.00
2019-03-11T23:15:18.804Z,95.80
2019-03-11T23:17:51.304Z,96.00
2019-03-11T23:20:20.464Z,95.50
2019-03-11T23:22:49.688Z,95.70
2019-03-11T23:25:18.836Z,95.80
2019-03-11T23:27:48.138Z,96.10
2019-03-11T23:30:17.393Z,96.00
2019-03-11T23:32:46.575Z,96.20
2019-03-11T23:35:16.813Z,96.40
2019-03-11T23:37:47.800Z,96.20
2019-03-11T23:40:16.964Z,96.60
2019-03-11T23:42:46.189Z,95.80
2019-03-11T23:45:15.432Z,95.80
2019-03-11T23:47:45.674Z,95.80
2019-03-11T23:50:14.797Z,95.60
2019-03-11T23:52:43.996Z,95.70
2019-03-11T23:55:13.529Z,96.00
2019-03-11T23:57:42.686Z,95.60
